createdAt,value
2024-01-29T00:03:45.748Z,1.1
2024-01-29T00:09:43.061Z,1.1
2024-01-29T00:15:38.789Z,1.1
2024-01-29T00:21:33.803Z,1.1
2024-01-29T00:27:27.932Z,1
2024-01-29T00:33:07.822Z,1
2024-01-29T00:39:07.323Z,0.9
2024-01-29T00:45:01.793Z,0.9
2024-01-29T00:50:41.560Z,0.9
2024-01-29T00:56:43.583Z,0.9
2024-01-29T01:02:38.803Z,0.9
2024-01-29T01:08:39.884Z,0.9
2024-01-29T01:14:33.581Z,0.9
2024-01-29T01:20:14.177Z,0.9
2024-01-29T01:26:08.059Z,0.9
2024-01-29T01:32:02.827Z,0.9
2024-01-29T01:37:57.535Z,0.8
2024-01-29T01:43:54.389Z,0.8
2024-01-29T01:49:57.057Z,0.7
2024-01-29T01:55:51.241Z,0.6
2024-01-29T02:01:49.615Z,0.6
2024-01-29T02:07:45.083Z,0.6
2024-01-29T02:13:39.277Z,0.6
2024-01-29T02:19:34.188Z,0.6
2024-01-29T02:25:28.555Z,0.6
2024-01-29T02:31:22.944Z,0.6
2024-01-29T02:37:19.942Z,0.6
2024-01-29T02:43:14.395Z,0.4
2024-01-29T02:48:53.791Z,0.4
2024-01-29T02:54:48.822Z,0.4
2024-01-29T03:00:42.971Z,0.5
2024-01-29T03:06:38.925Z,0.5
2024-01-29T03:12:37.187Z,0.4
2024-01-29T03:18:18.098Z,0.4
2024-01-29T03:24:16.805Z,0.4
2024-01-29T03:30:10.797Z,0.4
2024-01-29T03:36:05.270Z,0.3
2024-01-29T03:41:44.156Z,0.3
2024-01-29T03:47:38.260Z,0.3
2024-01-29T03:53:33.228Z,0.2
2024-01-29T03:59:30.752Z,0.1
2024-01-29T04:05:13.810Z,0
2024-01-29T04:11:08.412Z,0.1
2024-01-29T04:17:03.015Z,0.2
2024-01-29T04:23:02.782Z,0.1
2024-01-29T04:28:44.468Z,0.1
2024-01-29T04:34:39.662Z,0.2
2024-01-29T04:40:34.269Z,0.2
2024-01-29T04:46:29.850Z,0.4
2024-01-29T04:52:10.587Z,0.3
2024-01-29T04:57:49.956Z,0.2
2024-01-29T05:03:13.246Z,0.3
2024-01-29T05:08:56.742Z,0.1
2024-01-29T05:14:21.034Z,0.3
2024-01-29T05:19:45.544Z,0.6
2024-01-29T05:25:43.081Z,0.5
2024-01-29T05:31:37.439Z,0.7
2024-01-29T05:37:26.639Z,0.8
2024-01-29T05:42:49.448Z,0.9
2024-01-29T05:48:28.610Z,0.9
2024-01-29T05:54:23.072Z,1.1
2024-01-29T06:00:17.503Z,1.1
2024-01-29T06:05:57.442Z,0.9
2024-01-29T06:11:42.171Z,0.9
2024-01-29T06:17:20.403Z,1.1
2024-01-29T06:23:26.135Z,1.1
2024-01-29T06:29:08.058Z,1.1
2024-01-29T06:35:06.225Z,1.3
2024-01-29T06:41:00.189Z,1.2
2024-01-29T06:46:56.270Z,1.3
2024-01-29T06:52:52.325Z,1.4
2024-01-29T06:58:46.429Z,1.1
2024-01-29T07:04:42.884Z,1.1
2024-01-29T07:10:41.659Z,1
2024-01-29T07:16:36.071Z,1.1
2024-01-29T07:22:32.434Z,1.1
2024-01-29T07:28:11.938Z,1.3
2024-01-29T07:34:08.181Z,1.5
2024-01-29T07:40:03.176Z,1.6
2024-01-29T07:46:00.396Z,1.8
2024-01-29T07:51:55.151Z,1.8
2024-01-29T07:57:52.643Z,1.9
2024-01-29T08:03:49.023Z,1.9
2024-01-29T08:09:44.432Z,1.9
2024-01-29T08:15:39.347Z,1.9
2024-01-29T08:21:41.179Z,1.9
2024-01-29T08:27:35.601Z,2
2024-01-29T08:33:31.996Z,2.4
2024-01-29T08:39:27.882Z,2.6
2024-01-29T08:45:21.731Z,2.9
2024-01-29T08:51:19.814Z,3.4
2024-01-29T08:57:19.973Z,3.6
2024-01-29T09:03:15.101Z,3.8
2024-01-29T09:09:20.288Z,4.1
2024-01-29T09:15:16.739Z,4.3
2024-01-29T09:20:57.458Z,4.1
2024-01-29T09:26:52.961Z,3.8
2024-01-29T09:32:50.667Z,3.8
2024-01-29T09:38:56.543Z,3.6
2024-01-29T09:44:53.547Z,3.6
2024-01-29T09:50:20.439Z,3.6
2024-01-29T09:56:17.957Z,3.5
2024-01-29T10:02:14.660Z,3.8
2024-01-29T10:07:55.878Z,4.1
2024-01-29T10:13:50.284Z,4.1
2024-01-29T10:19:44.983Z,4.3
2024-01-29T10:25:24.694Z,4.3
2024-01-29T10:31:05.595Z,4.6
2024-01-29T10:36:16.658Z,4.4
2024-01-29T10:42:02.919Z,4.3
2024-01-29T10:47:41.750Z,4.2
2024-01-29T10:53:21.543Z,4.1
2024-01-29T10:59:02.961Z,4.4
2024-01-29T11:04:54.347Z,4.2
2024-01-29T11:10:34.260Z,4.4
2024-01-29T11:16:14.969Z,4.4
2024-01-29T11:22:11.977Z,4.6
2024-01-29T11:27:58.073Z,4.4
2024-01-29T11:33:56.797Z,4.6
2024-01-29T11:40:03.759Z,4.7
2024-01-29T11:46:00.824Z,4.8
2024-01-29T11:51:58.808Z,4.3
2024-01-29T11:57:51.369Z,4.4
2024-01-29T12:03:47.318Z,4
2024-01-29T12:09:31.008Z,4.9
2024-01-29T12:15:25.348Z,5.1
2024-01-29T12:21:22.561Z,4.8
2024-01-29T12:27:19.280Z,4.3
2024-01-29T12:33:14.264Z,4.2
2024-01-29T12:38:56.522Z,4.6
2024-01-29T12:44:53.295Z,4.8
2024-01-29T12:50:49.527Z,4.2
2024-01-29T12:56:28.350Z,3.8
2024-01-29T13:02:08.879Z,4.1
2024-01-29T13:08:10.618Z,4
2024-01-29T13:14:09.055Z,3.9
2024-01-29T13:20:04.339Z,4.1
2024-01-29T13:25:44.309Z,3.9
2024-01-29T13:31:40.377Z,3.9
2024-01-29T13:37:24.558Z,3.8
2024-01-29T13:43:21.673Z,3.8
2024-01-29T13:49:18.726Z,3.9
2024-01-29T13:55:15.449Z,3.6
2024-01-29T14:01:10.494Z,3.4
2024-01-29T14:07:07.265Z,3.4
2024-01-29T14:13:03.190Z,3.3
2024-01-29T14:19:14.401Z,3.1
2024-01-29T14:25:09.393Z,3
2024-01-29T14:31:04.379Z,2.9
2024-01-29T14:37:04.140Z,2.8
2024-01-29T14:43:02.222Z,2.7
2024-01-29T14:49:00.595Z,2.6
2024-01-29T14:54:56.385Z,2.4
2024-01-29T15:00:53.071Z,2.3
2024-01-29T15:06:50.018Z,2.2
2024-01-29T15:12:47.191Z,2.1
2024-01-29T15:18:44.151Z,2
2024-01-29T15:24:41.742Z,1.9
2024-01-29T15:30:37.590Z,1.9
2024-01-29T15:36:32.556Z,1.8
2024-01-29T15:42:29.065Z,1.8
2024-01-29T15:48:29.199Z,1.8
2024-01-29T15:54:27.080Z,1.6
2024-01-29T16:00:21.524Z,1.6
2024-01-29T16:06:16.389Z,1.5
2024-01-29T16:12:11.157Z,1.6
2024-01-29T16:18:09.278Z,1.6
2024-01-29T16:24:04.953Z,1.5
2024-01-29T16:29:59.623Z,1.6
2024-01-29T16:35:56.146Z,1.6
2024-01-29T16:41:54.749Z,1.6
2024-01-29T16:47:48.716Z,1.6
2024-01-29T16:53:45.093Z,1.5
2024-01-29T16:59:40.267Z,1.6
2024-01-29T17:05:37.678Z,1.6
2024-01-29T17:11:33.564Z,1.5
2024-01-29T17:17:33.519Z,1.4
2024-01-29T17:23:29.666Z,1.4
2024-01-29T17:29:23.696Z,1.4
2024-01-29T17:35:20.556Z,1.4
2024-01-29T17:41:15.102Z,1.4
2024-01-29T17:47:11.348Z,1.4
2024-01-29T17:53:07.094Z,1.4
2024-01-29T17:59:04.664Z,1.4
2024-01-29T18:05:00.059Z,1.3
2024-01-29T18:10:39.410Z,1.3
2024-01-29T18:16:20.676Z,1.3
2024-01-29T18:22:00.372Z,1.3
2024-01-29T18:27:41.866Z,1.3
2024-01-29T18:33:36.199Z,1.3
2024-01-29T18:39:31.184Z,1.2
2024-01-29T18:45:25.495Z,1.1
2024-01-29T18:51:23.915Z,1.1
2024-01-29T18:57:18.369Z,1.1
2024-01-29T19:03:17.129Z,1
2024-01-29T19:09:14.300Z,1
2024-01-29T19:15:13.866Z,1.1
2024-01-29T19:20:54.110Z,1.1
2024-01-29T19:26:32.567Z,1.1
2024-01-29T19:32:12.010Z,1.1
2024-01-29T19:38:08.589Z,1.1
2024-01-29T19:44:02.837Z,1
2024-01-29T19:50:00.693Z,1.1
2024-01-29T19:55:55.193Z,0.9
2024-01-29T20:01:50.504Z,0.9
2024-01-29T20:07:46.306Z,0.9
2024-01-29T20:13:42.476Z,0.9
2024-01-29T20:19:38.410Z,0.8
2024-01-29T20:25:33.320Z,0.8
2024-01-29T20:31:29.357Z,0.8
2024-01-29T20:37:25.797Z,0.8
2024-01-29T20:43:39.615Z,0.6
2024-01-29T20:49:20.485Z,0.6
2024-01-29T20:55:27.628Z,0.6
2024-01-29T21:01:22.281Z,0.6
2024-01-29T21:07:18.994Z,0.5
2024-01-29T21:13:01.146Z,0.4
2024-01-29T21:18:55.820Z,0.4
2024-01-29T21:24:51.067Z,0.4
2024-01-29T21:30:45.074Z,0.3
2024-01-29T21:36:42.634Z,0.2
2024-01-29T21:42:20.985Z,0.1
2024-01-29T21:48:15.695Z,0
2024-01-29T21:54:10.915Z,0
2024-01-29T22:00:05.540Z,-0.4
2024-01-29T22:05:47.766Z,-0.3
2024-01-29T22:11:27.284Z,-0.4
2024-01-29T22:17:21.680Z,-0.4
2024-01-29T22:23:02.033Z,-0.5
2024-01-29T22:28:59.648Z,-0.6
2024-01-29T22:34:54.128Z,-0.5
2024-01-29T22:40:33.287Z,-0.6
2024-01-29T22:46:27.525Z,-0.6
2024-01-29T22:52:07.037Z,-0.8
2024-01-29T22:58:03.452Z,-0.8
2024-01-29T23:03:45.034Z,-0.8
2024-01-29T23:09:40.126Z,-0.8
2024-01-29T23:15:34.029Z,-0.9
2024-01-29T23:21:13.234Z,-1
2024-01-29T23:27:10.612Z,-1
2024-01-29T23:33:04.990Z,-1.1
2024-01-29T23:38:59.739Z,-1.5
2024-01-29T23:44:53.351Z,-1.2
2024-01-29T23:50:32.207Z,-1
2024-01-29T23:56:11.304Z,-1.2
